Climatologie pour Saint-Brevin les Pins
Jour • Résumé pour avril 29, 2017 Système :  Métrique    Anglais   Mixte
« - 1 jour
+ 1 jour »
Jour Semaine Mois Année Personnalisé
  Maximum : Minimum : Moyenne :
Température sous abri : -17.8 °C -16.3 °C -11.7 °C
Point de rosée : -17.8 °C -16.7 °C -15.1 °C
Humidité : Humidity % 36 % 70 %
Vitesse du vent : 0 km/h 0 km/h 8.9 km/h
Rafale : 0 km/h - -
Direction :- - SSE
Pression : 0 hPa 34015.8 hPa -
Précipitations : 0 mm    
Historical Graphs
 
 
Tableau de données pour avril 29, 2017
Heure Tempé Pt rosée Pression Vent Vitesse Rafale Humidité Taux pluie (/hr) Soleil
-17.8 °C -17.8 °C 0 hPa Calm     Humidity % 0 mm SolarRadiationWatts/m^2 W/m2 Conditions
00:00 -14.9 °C -15.4 °C 34476.3 hPa Calm     94 % 0 mm 0 W/m2
00:10 -15.2 °C -15.6 °C 34476.3 hPa WNW 2.6 km/h 2.6 km/h 95 % 0 mm 0 W/m2
00:15 -15.1 °C -15.5 °C 34476.3 hPa Calm   2.6 km/h 95 % 0 mm 0 W/m2
00:20 -15.1 °C -15.5 °C 34476.3 hPa Calm     95 % 0 mm 0 W/m2
00:25 -15.2 °C -15.6 °C 34476.3 hPa Calm     95 % 0 mm 0 W/m2
00:30 -15.2 °C -15.6 °C 34476.3 hPa Calm   2.6 km/h 95 % 0 mm 0 W/m2
00:35 -15.1 °C -15.3 °C 34476.3 hPa Calm   2.6 km/h 96 % 0 mm 0 W/m2
00:40 -15.1 °C -15.5 °C 34476.3 hPa SW 2.6 km/h 5.1 km/h 95 % 0 mm 0 W/m2
00:50 -15.1 °C -15.4 °C 34476.3 hPa SW 2.6 km/h 5.1 km/h 95 % 0 mm 0 W/m2
00:55 -15 °C -15.4 °C 34476.3 hPa Calm   5.1 km/h 95 % 0 mm 0 W/m2
01:00 -15 °C -15.4 °C 34476.3 hPa Calm   5.1 km/h 95 % 0 mm 0 W/m2
01:05 -15.1 °C -15.4 °C 34476.3 hPa Calm   2.6 km/h 95 % 0 mm 0 W/m2
01:10 -15.2 °C -15.6 °C 34476.3 hPa Calm     95 % 0 mm 0 W/m2
01:15 -15.3 °C -15.7 °C 34476.3 hPa Calm     95 % 0 mm 0 W/m2
01:20 -15.4 °C -15.8 °C 34476.3 hPa Calm     95 % 0 mm 0 W/m2
01:25 -15.3 °C -15.6 °C 34476.3 hPa Calm     96 % 0 mm 0 W/m2
01:35 -15.3 °C -15.7 °C 34476.3 hPa Calm   2.6 km/h 95 % 0 mm 0 W/m2
01:40 -15.3 °C -15.7 °C 34462.7 hPa Calm   2.6 km/h 95 % 0 mm 0 W/m2
01:45 -15.4 °C -15.8 °C 34462.7 hPa Calm   2.6 km/h 95 % 0 mm 0 W/m2
01:50 -15.4 °C -15.9 °C 34462.7 hPa SW 2.6 km/h 2.6 km/h 95 % 0 mm 0 W/m2
01:55 -15.6 °C -16 °C 34462.7 hPa Calm   5.1 km/h 95 % 0 mm 0 W/m2
02:00 -15.4 °C -15.8 °C 34462.7 hPa SW 2.6 km/h 5.1 km/h 96 % 0 mm 0 W/m2
02:05 -15.4 °C -15.8 °C 34462.7 hPa SW 5.1 km/h 7.7 km/h 95 % 0 mm 0 W/m2
02:10 -15.3 °C -15.7 °C 34462.7 hPa Calm   7.7 km/h 96 % 0 mm 0 W/m2
02:20 -15.4 °C -15.7 °C 34462.7 hPa Calm   2.6 km/h 96 % 0 mm 0 W/m2
02:25 -15.4 °C -15.8 °C 34462.7 hPa Calm   2.6 km/h 95 % 0 mm 0 W/m2
02:30 -15.4 °C -15.7 °C 34452.6 hPa Calm     96 % 0 mm 0 W/m2
02:35 -15.4 °C -15.8 °C 34452.6 hPa Calm     95 % 0 mm 0 W/m2
02:40 -15.5 °C -15.9 °C 34452.6 hPa Calm     95 % 0 mm 0 W/m2
02:45 -15.7 °C -16.1 °C 34452.6 hPa Calm     95 % 0 mm 0 W/m2
02:50 -15.7 °C -16.1 °C 34452.6 hPa Calm     95 % 0 mm 0 W/m2
02:55 -15.8 °C -16.2 °C 34452.6 hPa Calm     95 % 0 mm 0 W/m2
03:05 -15.9 °C -16.3 °C 34452.6 hPa Calm   2.6 km/h 95 % 0 mm 0 W/m2
03:10 -15.9 °C -16.2 °C 34452.6 hPa Calm   2.6 km/h 96 % 0 mm 0 W/m2
03:15 -15.8 °C -16.1 °C 34452.6 hPa Calm   2.6 km/h 96 % 0 mm 0 W/m2
03:20 -15.8 °C -16.1 °C 34442.4 hPa Calm     96 % 0 mm 0 W/m2
03:25 -15.8 °C -16.1 °C 34442.4 hPa Calm     96 % 0 mm 0 W/m2
03:30 -15.9 °C -16.3 °C 34442.4 hPa Calm     95 % 0 mm 0 W/m2
03:35 -15.9 °C -16.3 °C 34442.4 hPa Calm     95 % 0 mm 0 W/m2
03:40 -15.8 °C -16.2 °C 34442.4 hPa Calm     96 % 0 mm 0 W/m2
03:50 -15.9 °C -16.3 °C 34442.4 hPa Calm   2.6 km/h 95 % 0 mm 0 W/m2
03:55 -15.9 °C -16.2 °C 34428.8 hPa Calm   2.6 km/h 96 % 0 mm 0 W/m2
04:00 -15.9 °C -16.3 °C 34428.8 hPa Calm     95 % 0 mm 0 W/m2
04:05 -16.1 °C -16.5 °C 34428.8 hPa Calm     95 % 0 mm 0 W/m2
04:10 -16.2 °C -16.6 °C 34428.8 hPa Calm     95 % 0 mm 0 W/m2
04:15 -16.3 °C -16.7 °C 34418.7 hPa Calm     95 % 0 mm 0 W/m2
04:20 -16.3 °C -16.6 °C 34418.7 hPa Calm   2.6 km/h 96 % 0 mm 0 W/m2
04:25 -16.2 °C -16.6 °C 34418.7 hPa Calm   2.6 km/h 96 % 0 mm 0 W/m2
04:35 -16.1 °C -16.4 °C 34418.7 hPa Calm   5.1 km/h 96 % 0 mm 0 W/m2
04:40 -16 °C -16.3 °C 34418.7 hPa Calm   5.1 km/h 96 % 0 mm 0 W/m2
04:45 -16.1 °C -16.4 °C 34418.7 hPa Calm   2.6 km/h 96 % 0 mm 0 W/m2
04:50 -16.1 °C -16.4 °C 34418.7 hPa Calm   2.6 km/h 96 % 0 mm 0 W/m2
04:55 -16.1 °C -16.4 °C 34418.7 hPa Calm   2.6 km/h 96 % 0 mm 0 W/m2
05:00 -16 °C -16.3 °C 34418.7 hPa Calm   2.6 km/h 96 % 0 mm 0 W/m2
05:05 -16.1 °C -16.4 °C 34418.7 hPa Calm   2.6 km/h 96 % 0 mm 0 W/m2
05:10 -16.1 °C -16.4 °C 34405.1 hPa Calm   2.6 km/h 96 % 0 mm 0 W/m2
05:20 -15.9 °C -16.2 °C 34405.1 hPa Calm   2.6 km/h 96 % 0 mm 0 W/m2
05:25 -16 °C -16.3 °C 34405.1 hPa Calm   2.6 km/h 96 % 0 mm 0 W/m2
05:30 -16.1 °C -16.4 °C 34405.1 hPa Calm   2.6 km/h 96 % 0 mm 0 W/m2
05:35 -15.9 °C -16.3 °C 34405.1 hPa Calm   2.6 km/h 96 % 0 mm 0 W/m2
05:40 -15.9 °C -16.3 °C 34395 hPa Calm   2.6 km/h 96 % 0 mm 0 W/m2
05:45 -15.9 °C -16.1 °C 34395 hPa Calm     97 % 0 mm 0 W/m2
05:50 -15.9 °C -16.2 °C 34395 hPa Calm   2.6 km/h 96 % 0 mm 0 W/m2
05:55 -15.8 °C -16.1 °C 34395 hPa Calm   2.6 km/h 96 % 0 mm 0 W/m2
06:05 -15.7 °C -16 °C 34395 hPa SE 2.6 km/h 7.7 km/h 97 % 0 mm 0 W/m2
06:10 -15.6 °C -15.8 °C 34395 hPa ESE 2.6 km/h 7.7 km/h 97 % 0 mm 0 W/m2
06:15 -15.4 °C -15.7 °C 34395 hPa ESE 5.1 km/h 7.7 km/h 97 % 0 mm 0 W/m2
06:20 -15.3 °C -15.6 °C 34395 hPa Calm   7.7 km/h 97 % 0 mm 0 W/m2
06:25 -15.2 °C -15.4 °C 34395 hPa SE 5.1 km/h 7.7 km/h 97 % 0 mm 0 W/m2
06:30 -15.2 °C -15.4 °C 34384.8 hPa SE 2.6 km/h 7.7 km/h 97 % 0 mm 0 W/m2
06:35 -15.2 °C -15.4 °C 34384.8 hPa SE 5.1 km/h 7.7 km/h 97 % 0 mm 0 W/m2
06:40 -15.2 °C -15.5 °C 34384.8 hPa SE 5.1 km/h 7.7 km/h 97 % 0 mm 0 W/m2
06:50 -15.4 °C -15.7 °C 34384.8 hPa Calm   7.7 km/h 96 % 0 mm 0 W/m2
06:55 -15.4 °C -15.6 °C 34384.8 hPa Calm   10.3 km/h 97 % 0 mm 0 W/m2
07:00 -15.3 °C -15.6 °C 34384.8 hPa SE 2.6 km/h 10.3 km/h 97 % 0 mm 5 W/m2
07:05 -15.3 °C -15.6 °C 34384.8 hPa SE 5.1 km/h 10.3 km/h 97 % 0 mm 7 W/m2
07:10 -15.3 °C -15.5 °C 34384.8 hPa SSE 5.1 km/h 10.3 km/h 97 % 0 mm 11 W/m2
07:15 -15.2 °C -15.4 °C 34384.8 hPa Calm   10.3 km/h 97 % 0 mm 12 W/m2
07:20 -15.2 °C -15.4 °C 34384.8 hPa SE 2.6 km/h 10.3 km/h 97 % 0 mm 16 W/m2
07:25 -15.2 °C -15.4 °C 34384.8 hPa Calm   7.7 km/h 97 % 0 mm 19 W/m2
07:35 -15.1 °C -15.3 °C 34384.8 hPa SE 5.1 km/h 10.3 km/h 97 % 0 mm 23 W/m2
07:40 -15.1 °C -15.3 °C 34384.8 hPa Calm   10.3 km/h 97 % 0 mm 26 W/m2
07:45 -15 °C -15.2 °C 34384.8 hPa SE 2.6 km/h 10.3 km/h 97 % 0 mm 28 W/m2
07:50 -14.9 °C -15.2 °C 34384.8 hPa Calm   10.3 km/h 97 % 0 mm 32 W/m2
07:55 -14.9 °C -15.2 °C 34384.8 hPa SE 5.1 km/h 10.3 km/h 97 % 0 mm 33 W/m2
08:00 -14.8 °C -15 °C 34384.8 hPa SSE 10.3 km/h 12.9 km/h 97 % 0 mm 33 W/m2
08:05 -14.7 °C -14.9 °C 34384.8 hPa SE 2.6 km/h 12.9 km/h 97 % 0 mm 35 W/m2
08:10 -14.6 °C -14.8 °C 34384.8 hPa SSE 10.3 km/h 15.6 km/h 97 % 0 mm 37 W/m2
08:20 -14.3 °C -14.6 °C 34371.3 hPa SE 2.6 km/h 18.2 km/h 97 % 0 mm 42 W/m2
08:25 -14.2 °C -14.4 °C 34371.3 hPa South 12.9 km/h 15.6 km/h 97 % 0 mm 125 W/m2
08:30 -14.1 °C -14.4 °C 34371.3 hPa SSE 7.7 km/h 18.2 km/h 96 % 0 mm 211 W/m2
08:35 -13.9 °C -14.2 °C 34371.3 hPa SSE 5.1 km/h 20.8 km/h 96 % 0 mm 225 W/m2
08:40 -13.8 °C -14.1 °C 34371.3 hPa ESE 10.3 km/h 20.8 km/h 96 % 0 mm 239 W/m2
08:45 -13.7 °C -14 °C 34371.3 hPa SE 5.1 km/h 18.2 km/h 96 % 0 mm 255 W/m2
08:50 -13.4 °C -13.8 °C 34371.3 hPa SSE 5.1 km/h 18.2 km/h 96 % 0 mm 269 W/m2
08:55 -13.3 °C -13.8 °C 34371.3 hPa SE 10.3 km/h 18.2 km/h 95 % 0 mm 279 W/m2
09:05 -12.8 °C -13.3 °C 34371.3 hPa SSE 7.7 km/h 18.2 km/h 94 % 0 mm 315 W/m2
09:10 -12.7 °C -13.3 °C 34371.3 hPa SE 7.7 km/h 23.3 km/h 92 % 0 mm 330 W/m2
09:15 -12.4 °C -13.2 °C 34371.3 hPa SE 10.3 km/h 23.3 km/h 91 % 0 mm 341 W/m2
09:20 -12.3 °C -13.2 °C 34371.3 hPa SE 7.7 km/h 23.3 km/h 89 % 0 mm 357 W/m2
09:25 -12.2 °C -13.2 °C 34361.1 hPa SSE 12.9 km/h 23.3 km/h 88 % 0 mm 371 W/m2
09:30 -11.9 °C -13.2 °C 34361.1 hPa SE 7.7 km/h 18.2 km/h 86 % 0 mm 387 W/m2
09:35 -11.8 °C -13.2 °C 34361.1 hPa SSE 18.2 km/h 23.3 km/h 84 % 0 mm 403 W/m2
09:40 -11.7 °C -13.4 °C 34361.1 hPa South 7.7 km/h 25.9 km/h 81 % 0 mm 417 W/m2
09:50 -11.4 °C -13.3 °C 34361.1 hPa SSE 25.9 km/h 33.6 km/h 79 % 0 mm 446 W/m2
09:55 -11.3 °C -13.3 °C 34361.1 hPa ESE 5.1 km/h 28.5 km/h 78 % 0 mm 462 W/m2
10:00 -11.2 °C -13.4 °C 34361.1 hPa ESE 25.9 km/h 33.6 km/h 76 % 0 mm 476 W/m2
10:05 -11.1 °C -13.3 °C 34361.1 hPa SE 18.2 km/h 33.6 km/h 76 % 0 mm 490 W/m2
10:10 -11 °C -13.5 °C 34347.6 hPa SE 12.9 km/h 31.1 km/h 74 % 0 mm 504 W/m2
10:15 -10.9 °C -13.3 °C 34347.6 hPa South 7.7 km/h 31.1 km/h 75 % 0 mm 522 W/m2
10:20 -10.7 °C -13.4 °C 34347.6 hPa South 15.6 km/h 31.1 km/h 73 % 0 mm 538 W/m2
10:25 -10.4 °C -13 °C 34347.6 hPa South 10.3 km/h 31.1 km/h 74 % 0 mm 547 W/m2
10:35 -10.3 °C -13.3 °C 34347.6 hPa SSE 5.1 km/h 31.1 km/h 70 % 0 mm 573 W/m2
10:45 -10.1 °C -13.4 °C 34337.4 hPa SE 28.5 km/h 38.8 km/h 67 % 0 mm 601 W/m2
10:50 -10.1 °C -13.4 °C 34337.4 hPa South 12.9 km/h 38.8 km/h 67 % 0 mm 619 W/m2
10:55 -9.9 °C -13.6 °C 34337.4 hPa South 25.9 km/h 41.4 km/h 65 % 0 mm 628 W/m2
11:00 -9.9 °C -13.7 °C 34337.4 hPa SSE 12.9 km/h 41.4 km/h 63 % 0 mm 640 W/m2
11:05 -9.7 °C -13.6 °C 34337.4 hPa South 7.7 km/h 31.1 km/h 63 % 0 mm 643 W/m2
11:10 -9.6 °C -13.6 °C 34327.3 hPa South 12.9 km/h 28.5 km/h 62 % 0 mm 664 W/m2
11:20 -9.5 °C -14.1 °C 34337.4 hPa South 12.9 km/h 31.1 km/h 58 % 0 mm 687 W/m2
11:25 -9.4 °C -14 °C 34327.3 hPa ESE 18.2 km/h 31.1 km/h 58 % 0 mm 707 W/m2
11:30 -9.3 °C -13.8 °C 34327.3 hPa South 25.9 km/h 28.5 km/h 58 % 0 mm 747 W/m2
11:35 -9.3 °C -14.4 °C 34327.3 hPa South 18.2 km/h 33.6 km/h 54 % 0 mm 729 W/m2
11:40 -9.2 °C -14.2 °C 34327.3 hPa SE 15.6 km/h 33.6 km/h 55 % 0 mm 761 W/m2
11:45 -9.1 °C -14.1 °C 34313.7 hPa SSE 12.9 km/h 36.2 km/h 55 % 0 mm 763 W/m2
11:50 -9 °C -14.2 °C 34313.7 hPa South 18.2 km/h 36.2 km/h 54 % 0 mm 810 W/m2
11:55 -9.1 °C -14.4 °C 34313.7 hPa SSE 20.8 km/h 36.2 km/h 53 % 0 mm 752 W/m2
12:00 -9 °C -13.7 °C 34313.7 hPa South 20.8 km/h 33.6 km/h 57 % 0 mm 824 W/m2
12:10 -8.8 °C -14.3 °C 34303.6 hPa South 23.3 km/h 38.8 km/h 52 % 0 mm 837 W/m2
12:15 -9.1 °C -14.9 °C 34303.6 hPa SSE 18.2 km/h 41.4 km/h 50 % 0 mm 183 W/m2
12:20 -9.3 °C -14.9 °C 34303.6 hPa SSE 7.7 km/h 41.4 km/h 51 % 0 mm 933 W/m2
12:25 -8.6 °C -14.6 °C 34303.6 hPa SE 23.3 km/h 38.8 km/h 49 % 0 mm 930 W/m2
12:30 -9 °C -15.1 °C 34303.6 hPa South 15.6 km/h 38.8 km/h 48 % 0 mm 951 W/m2
12:35 -8.9 °C -15.1 °C 34303.6 hPa SE 18.2 km/h 36.2 km/h 48 % 0 mm 304 W/m2
12:40 -9.1 °C -15 °C 34303.6 hPa ENE 12.9 km/h 36.2 km/h 49 % 0 mm 967 W/m2
12:50 -8.8 °C -14.9 °C 34293.4 hPa SSE 23.3 km/h 38.8 km/h 48 % 0 mm 199 W/m2
12:55 -8.7 °C -14.7 °C 34293.4 hPa ESE 33.6 km/h 33.6 km/h 49 % 0 mm 993 W/m2
13:00 -8.8 °C -15.3 °C 34279.9 hPa SSW 7.7 km/h 36.2 km/h 46 % 0 mm 330 W/m2
13:05 -9.1 °C -14.8 °C 34279.9 hPa ESE 10.3 km/h 36.2 km/h 51 % 0 mm 234 W/m2
13:10 -8.7 °C -15.2 °C 34279.9 hPa WNW 20.8 km/h 44.1 km/h 46 % 0 mm 916 W/m2
13:15 -8.4 °C -15.1 °C 34269.7 hPa SSW 20.8 km/h 44.1 km/h 45 % 0 mm 967 W/m2
13:20 -8.2 °C -15.1 °C 34269.7 hPa SE 36.2 km/h 41.4 km/h 44 % 0 mm 976 W/m2
13:25 -8.3 °C -14.7 °C 34269.7 hPa ESE 25.9 km/h 41.4 km/h 47 % 0 mm 1002 W/m2
13:35 -8.7 °C -14.6 °C 34269.7 hPa SSE 15.6 km/h 33.6 km/h 49 % 0 mm 984 W/m2
13:40 -8.2 °C -14.7 °C 34256.2 hPa South 20.8 km/h 51.8 km/h 46 % 0 mm 956 W/m2
13:45 -8.1 °C -14.8 °C 34256.2 hPa SSE 12.9 km/h 51.8 km/h 45 % 0 mm 223 W/m2
13:50 -8.1 °C -15 °C 34256.2 hPa SE 15.6 km/h 41.4 km/h 44 % 0 mm 970 W/m2
13:55 -8.2 °C -15.1 °C 34256.2 hPa SSE 12.9 km/h 41.4 km/h 44 % 0 mm 988 W/m2
14:00 -7.7 °C -14.3 °C 34246 hPa SSE 15.6 km/h 38.8 km/h 46 % 0 mm 976 W/m2
14:05 -7.7 °C -15.2 °C 34246 hPa SSE 7.7 km/h 38.8 km/h 41 % 0 mm 981 W/m2
14:10 -7.4 °C -13.9 °C 34246 hPa SSE 10.3 km/h 38.8 km/h 47 % 0 mm 983 W/m2
14:20 -7.7 °C -14.8 °C 34235.8 hPa South 31.1 km/h 38.8 km/h 43 % 0 mm 981 W/m2
14:25 -7.7 °C -15 °C 34235.8 hPa SE 18.2 km/h 44.1 km/h 42 % 0 mm 1048 W/m2
14:30 -7.7 °C -15.3 °C 34235.8 hPa SSW 38.8 km/h 49.2 km/h 40 % 0 mm 977 W/m2
14:35 -7.6 °C -15.1 °C 34235.8 hPa South 20.8 km/h 49.2 km/h 41 % 0 mm 926 W/m2
14:40 -7.9 °C -15.6 °C 34222.3 hPa SE 25.9 km/h 46.7 km/h 40 % 0 mm 223 W/m2
14:45 -8.4 °C -15.5 °C 34222.3 hPa South 28.5 km/h 46.7 km/h 43 % 0 mm 200 W/m2
14:50 -8.1 °C -14.9 °C 34222.3 hPa SSE 15.6 km/h 41.4 km/h 44 % 0 mm 981 W/m2
14:55 -7.7 °C -15.6 °C 34222.3 hPa SE 10.3 km/h 44.1 km/h 39 % 0 mm 962 W/m2
15:05 -8.2 °C -15.6 °C 34212.1 hPa SSE 18.2 km/h 36.2 km/h 41 % 0 mm 287 W/m2
15:10 -7.9 °C -15.4 °C 34212.1 hPa SE 31.1 km/h 44.1 km/h 41 % 0 mm 230 W/m2
15:15 -8.2 °C -15.4 °C 34212.1 hPa ESE 18.2 km/h 44.1 km/h 42 % 0 mm 253 W/m2
15:20 -7.9 °C -15.1 °C 34212.1 hPa SSE 7.7 km/h 44.1 km/h 43 % 0 mm 921 W/m2
15:25 -8.2 °C -15.7 °C 34212.1 hPa South 20.8 km/h 31.1 km/h 41 % 0 mm 216 W/m2
15:30 -8.4 °C -15.9 °C 34198.6 hPa SSE 7.7 km/h 31.1 km/h 41 % 0 mm 172 W/m2
15:35 -8.2 °C -15.3 °C 34198.6 hPa SSE 28.5 km/h 31.1 km/h 43 % 0 mm 956 W/m2
15:40 -8.3 °C -15.7 °C 34198.6 hPa SE 36.2 km/h 36.2 km/h 41 % 0 mm 176 W/m2
15:50 -8 °C -14.9 °C 34198.6 hPa East 33.6 km/h 38.8 km/h 44 % 0 mm 882 W/m2
15:55 -7.8 °C -15.7 °C 34188.4 hPa SSE 20.8 km/h 36.2 km/h 39 % 0 mm 882 W/m2
16:00 -8 °C -15.7 °C 34188.4 hPa SSE 10.3 km/h 38.8 km/h 40 % 0 mm 236 W/m2
16:05 -7.7 °C -15.3 °C 34188.4 hPa SSE 20.8 km/h 38.8 km/h 40 % 0 mm 896 W/m2
16:10 -7.3 °C -15.4 °C 34178.3 hPa SSE 28.5 km/h 36.2 km/h 38 % 0 mm 905 W/m2
16:15 -7.3 °C -15.7 °C 34178.3 hPa ESE 12.9 km/h 36.2 km/h 37 % 0 mm 821 W/m2
16:20 -7.4 °C -15.9 °C 34178.3 hPa SSE 18.2 km/h 38.8 km/h 36 % 0 mm 805 W/m2
16:25 -7 °C -14.9 °C 34178.3 hPa South 7.7 km/h 38.8 km/h 39 % 0 mm 823 W/m2
16:35 -7.6 °C -15.2 °C 34164.7 hPa South 20.8 km/h 38.8 km/h 40 % 0 mm 717 W/m2
16:40 -7.3 °C -15.7 °C 34164.7 hPa SE 10.3 km/h 38.8 km/h 37 % 0 mm 735 W/m2
16:45 -7.6 °C -14.1 °C 34164.7 hPa WNW 12.9 km/h 28.5 km/h 46 % 0 mm 715 W/m2
16:50 -7.8 °C -14 °C 34164.7 hPa East 5.1 km/h 20.8 km/h 48 % 0 mm 679 W/m2
16:55 -7.8 °C -14.7 °C 34154.6 hPa SSW 25.9 km/h 31.1 km/h 44 % 0 mm 668 W/m2
17:00 -7.5 °C -15.2 °C 34154.6 hPa SE 15.6 km/h 31.1 km/h 40 % 0 mm 696 W/m2
17:05 -8.1 °C -13.8 °C 34154.6 hPa WSW 2.6 km/h 28.5 km/h 51 % 0 mm 656 W/m2
17:10 -8.2 °C -13.4 °C 34154.6 hPa South 20.8 km/h 25.9 km/h 54 % 0 mm 612 W/m2
17:20 -8.2 °C -12.6 °C 34154.6 hPa SW 18.2 km/h 33.6 km/h 60 % 0 mm 619 W/m2
17:25 -8.3 °C -13.6 °C 34144.4 hPa SSW 15.6 km/h 28.5 km/h 54 % 0 mm 615 W/m2
17:30 -8.6 °C -13.5 °C 34144.4 hPa WSW 15.6 km/h 28.5 km/h 56 % 0 mm 169 W/m2
17:35 -8.4 °C -13.7 °C 34144.4 hPa SW 10.3 km/h 25.9 km/h 54 % 0 mm 622 W/m2
17:40 -8.2 °C -14.1 °C 34144.4 hPa South 15.6 km/h 36.2 km/h 50 % 0 mm 548 W/m2
17:45 -8.2 °C -14.2 °C 34130.9 hPa WNW 10.3 km/h 36.2 km/h 49 % 0 mm 508 W/m2
17:50 -8.2 °C -13.8 °C 34130.9 hPa SW 5.1 km/h 31.1 km/h 51 % 0 mm 464 W/m2
17:55 -8 °C -14.2 °C 34130.9 hPa WSW 7.7 km/h 25.9 km/h 48 % 0 mm 464 W/m2
18:05 -8.2 °C -14.3 °C 34130.9 hPa SW 2.6 km/h 33.6 km/h 48 % 0 mm 517 W/m2
18:10 -8.2 °C -14.7 °C 34130.9 hPa SSW 18.2 km/h 33.6 km/h 46 % 0 mm 141 W/m2
18:15 -8.5 °C -14.8 °C 34120.7 hPa SSW 7.7 km/h 28.5 km/h 47 % 0 mm 209 W/m2
18:20 -8.5 °C -14.8 °C 34120.7 hPa SW 12.9 km/h 28.5 km/h 47 % 0 mm 309 W/m2
18:25 -8.4 °C -14.7 °C 34120.7 hPa South 15.6 km/h 23.3 km/h 47 % 0 mm 290 W/m2
18:30 -8.3 °C -14.4 °C 34120.7 hPa South 23.3 km/h 25.9 km/h 48 % 0 mm 230 W/m2
18:35 -8.3 °C -14.7 °C 34120.7 hPa WSW 10.3 km/h 25.9 km/h 47 % 0 mm 250 W/m2
18:40 -8.4 °C -14.2 °C 34120.7 hPa SSW 5.1 km/h 25.9 km/h 50 % 0 mm 218 W/m2
18:50 -8.4 °C -14.4 °C 34107.2 hPa SSW 7.7 km/h 23.3 km/h 49 % 0 mm 243 W/m2
18:55 -8.3 °C -14.3 °C 34107.2 hPa SSW 12.9 km/h 23.3 km/h 49 % 0 mm 362 W/m2
19:00 -8.1 °C -14.6 °C 34107.2 hPa South 7.7 km/h 31.1 km/h 46 % 0 mm 473 W/m2
19:05 -7.9 °C -15 °C 34107.2 hPa SW 18.2 km/h 31.1 km/h 43 % 0 mm 441 W/m2
19:10 -7.8 °C -14.5 °C 34097 hPa SW 12.9 km/h 31.1 km/h 45 % 0 mm 420 W/m2
19:15 -7.9 °C -14.8 °C 34097 hPa SSW 20.8 km/h 31.1 km/h 44 % 0 mm 153 W/m2
19:20 -8.2 °C -14.8 °C 34097 hPa SSW 18.2 km/h 31.1 km/h 46 % 0 mm 102 W/m2
19:25 -8.4 °C -15.1 °C 34097 hPa SSW 12.9 km/h 33.6 km/h 45 % 0 mm 176 W/m2
19:35 -8.7 °C -15.7 °C 34097 hPa South 18.2 km/h 33.6 km/h 43 % 0 mm 67 W/m2
19:40 -8.8 °C -15.6 °C 34097 hPa SW 5.1 km/h 33.6 km/h 44 % 0 mm 77 W/m2
19:45 -8.7 °C -15.4 °C 34097 hPa SSW 25.9 km/h 31.1 km/h 45 % 0 mm 204 W/m2
19:50 -8.7 °C -15.4 °C 34097 hPa SSW 15.6 km/h 31.1 km/h 45 % 0 mm 121 W/m2
19:55 -8.8 °C -15.3 °C 34097 hPa SW 15.6 km/h 31.1 km/h 46 % 0 mm 69 W/m2
20:00 -8.9 °C -15.2 °C 34086.9 hPa South 15.6 km/h 31.1 km/h 47 % 0 mm 65 W/m2
20:05 -9 °C -15.3 °C 34086.9 hPa South 15.6 km/h 31.1 km/h 47 % 0 mm 69 W/m2
20:10 -9.1 °C -15.2 °C 34086.9 hPa SW 5.1 km/h 25.9 km/h 48 % 0 mm 67 W/m2
20:20 -9.1 °C -15.7 °C 34086.9 hPa South 25.9 km/h 28.5 km/h 45 % 0 mm 51 W/m2
20:30 -9.2 °C -15.8 °C 34086.9 hPa South 7.7 km/h 28.5 km/h 45 % 0 mm 39 W/m2
20:35 -9.2 °C -15.8 °C 34086.9 hPa SSW 18.2 km/h 28.5 km/h 45 % 0 mm 40 W/m2
20:40 -9.2 °C -15.8 °C 34086.9 hPa South 10.3 km/h 28.5 km/h 45 % 0 mm 37 W/m2
20:45 -9.3 °C -15.7 °C 34086.9 hPa South 18.2 km/h 25.9 km/h 46 % 0 mm 30 W/m2
20:50 -9.3 °C -15.7 °C 34086.9 hPa South 10.3 km/h 25.9 km/h 46 % 0 mm 21 W/m2
20:55 -9.3 °C -15.7 °C 34086.9 hPa SSW 20.8 km/h 23.3 km/h 46 % 0 mm 16 W/m2
21:05 -9.3 °C -15.8 °C 34073.3 hPa SSE 7.7 km/h 20.8 km/h 46 % 0 mm 9 W/m2
21:10 -9.5 °C -15.7 °C 34073.3 hPa SSE 5.1 km/h 18.2 km/h 47 % 0 mm 5 W/m2
21:15 -9.6 °C -15.6 °C 34073.3 hPa ESE 2.6 km/h 15.6 km/h 48 % 0 mm 0 W/m2
21:20 -9.7 °C -15.6 °C 34063.2 hPa SSE 7.7 km/h 12.9 km/h 49 % 0 mm 0 W/m2
21:25 -9.8 °C -15.4 °C 34063.2 hPa SSE 2.6 km/h 12.9 km/h 51 % 0 mm 0 W/m2
21:30 -9.9 °C -15.3 °C 34063.2 hPa ESE 2.6 km/h 10.3 km/h 52 % 0 mm 0 W/m2
21:35 -10.1 °C -15.4 °C 34063.2 hPa ESE 2.6 km/h 10.3 km/h 52 % 0 mm 0 W/m2
21:40 -10.1 °C -15.3 °C 34063.2 hPa Calm   7.7 km/h 53 % 0 mm 0 W/m2
21:50 -10.3 °C -15 °C 34049.6 hPa Calm   5.1 km/h 57 % 0 mm 0 W/m2
21:55 -10.4 °C -15.1 °C 34049.6 hPa Calm   7.7 km/h 57 % 0 mm 0 W/m2
22:00 -10.7 °C -15 °C 34049.6 hPa Calm   7.7 km/h 59 % 0 mm 0 W/m2
22:05 -10.8 °C -14.9 °C 34049.6 hPa Calm   5.1 km/h 61 % 0 mm 0 W/m2
22:10 -11 °C -14.8 °C 34049.6 hPa Calm   5.1 km/h 63 % 0 mm 0 W/m2
22:15 -11.1 °C -14.9 °C 34049.6 hPa Calm   5.1 km/h 63 % 0 mm 0 W/m2
22:20 -11.1 °C -14.8 °C 34049.6 hPa Calm   2.6 km/h 64 % 0 mm 0 W/m2
22:25 -11.3 °C -14.8 °C 34039.5 hPa ESE 2.6 km/h 2.6 km/h 65 % 0 mm 0 W/m2
22:35 -11.8 °C -14.9 °C 34039.5 hPa Calm   2.6 km/h 68 % 0 mm 0 W/m2
22:40 -12 °C -14.9 °C 34039.5 hPa Calm   2.6 km/h 70 % 0 mm 0 W/m2
22:45 -12.2 °C -14.9 °C 34039.5 hPa Calm   2.6 km/h 71 % 0 mm 0 W/m2
22:50 -12.3 °C -14.9 °C 34039.5 hPa Calm   2.6 km/h 72 % 0 mm 0 W/m2
22:55 -12.4 °C -15 °C 34039.5 hPa Calm   2.6 km/h 73 % 0 mm 0 W/m2
23:00 -12.6 °C -15 °C 34029.3 hPa Calm   2.6 km/h 74 % 0 mm 0 W/m2
23:05 -12.7 °C -15.1 °C 34029.3 hPa Calm   2.6 km/h 74 % 0 mm 0 W/m2
23:10 -12.8 °C -15.1 °C 34029.3 hPa Calm   2.6 km/h 75 % 0 mm 0 W/m2
23:20 -12.8 °C -14.9 °C 34029.3 hPa Calm   2.6 km/h 77 % 0 mm 0 W/m2
23:25 -12.8 °C -15.2 °C 34029.3 hPa Calm   2.6 km/h 75 % 0 mm 0 W/m2
23:30 -12.9 °C -15.2 °C 34029.3 hPa ESE 2.6 km/h 2.6 km/h 75 % 0 mm 0 W/m2
23:35 -12.8 °C -15.2 °C 34015.8 hPa Calm   2.6 km/h 75 % 0 mm 0 W/m2
23:40 -12.9 °C -15.3 °C 34015.8 hPa Calm   5.1 km/h 74 % 0 mm 0 W/m2
23:45 -13.1 °C -15.3 °C 34015.8 hPa Calm   5.1 km/h 76 % 0 mm 0 W/m2
23:50 -13.2 °C -15.4 °C 34015.8 hPa Calm   2.6 km/h 76 % 0 mm 0 W/m2
23:55 -13.1 °C -15.3 °C 34015.8 hPa ESE 7.7 km/h 10.3 km/h 76 % 0 mm 0 W/m2
Avec l'autorisation de Weather Underground - 1.5 mb